createdAt,value
2022-09-12T00:00:47.315Z,21.4
2022-09-12T00:01:53.425Z,21.4
2022-09-12T00:02:59.540Z,21.4
2022-09-12T00:04:05.676Z,21.4
2022-09-12T00:05:11.773Z,21.4
2022-09-12T00:07:23.990Z,21.4
2022-09-12T00:08:30.130Z,21.4
2022-09-12T00:09:35.235Z,21.4
2022-09-12T00:10:41.348Z,21.4
2022-09-12T00:11:47.470Z,21.4
2022-09-12T00:12:53.582Z,21.4
2022-09-12T00:13:59.688Z,21.4
2022-09-12T00:15:05.810Z,21.4
2022-09-12T00:16:11.925Z,21.4
2022-09-12T00:17:18.034Z,21.4
2022-09-12T00:18:24.150Z,21.4
2022-09-12T00:19:30.259Z,21.4
2022-09-12T00:20:36.384Z,21.4
2022-09-12T00:21:42.491Z,21.4
2022-09-12T00:22:48.609Z,21.4
2022-09-12T00:23:53.732Z,21.4
2022-09-12T00:24:59.857Z,21.4
2022-09-12T00:26:05.963Z,21.4
2022-09-12T00:27:12.071Z,21.4
2022-09-12T00:28:18.183Z,21.4
2022-09-12T00:29:24.306Z,21.4
2022-09-12T00:30:30.419Z,21.4
2022-09-12T00:31:36.542Z,21.4
2022-09-12T00:32:42.637Z,21.4
2022-09-12T00:33:48.755Z,21.4
2022-09-12T00:34:54.895Z,21.4
2022-09-12T00:36:00.987Z,21.4
2022-09-12T00:37:07.096Z,21.4
2022-09-12T00:38:12.222Z,21.4
2022-09-12T00:39:18.335Z,21.4
2022-09-12T00:40:24.460Z,21.4
2022-09-12T00:41:30.560Z,21.4
2022-09-12T00:42:36.682Z,21.4
2022-09-12T00:43:42.788Z,21.4
2022-09-12T00:44:48.908Z,21.4
2022-09-12T00:45:55.010Z,21.4
2022-09-12T00:47:01.127Z,21.4
2022-09-12T00:48:07.246Z,21.4
2022-09-12T00:49:13.351Z,21.4
2022-09-12T00:50:19.471Z,21.4
2022-09-12T00:51:25.589Z,21.4
2022-09-12T00:52:30.718Z,21.4
2022-09-12T00:53:36.865Z,21.4
2022-09-12T00:54:41.969Z,21.4
2022-09-12T00:55:48.072Z,21.4
2022-09-12T00:56:54.185Z,21.4
2022-09-12T00:58:00.303Z,21.4
2022-09-12T00:59:06.421Z,21.4
2022-09-12T01:00:12.542Z,21.4
2022-09-12T01:01:18.708Z,21.4
2022-09-12T01:02:24.779Z,21.4
2022-09-12T01:03:30.875Z,21.4
2022-09-12T01:04:36.991Z,21.4
2022-09-12T01:05:43.099Z,21.4
2022-09-12T01:06:49.228Z,21.4
2022-09-12T01:07:55.332Z,21.4
2022-09-12T01:09:00.471Z,21.4
2022-09-12T01:10:06.571Z,21.4
2022-09-12T01:11:12.686Z,21.4
2022-09-12T01:12:18.800Z,21.4
2022-09-12T01:13:24.950Z,21.4
2022-09-12T01:14:31.027Z,21.4
2022-09-12T01:15:37.141Z,21.4
2022-09-12T01:16:43.247Z,21.4
2022-09-12T01:17:49.367Z,21.4
2022-09-12T01:18:55.484Z,21.4
2022-09-12T01:20:01.600Z,21.4
2022-09-12T01:21:07.710Z,21.4
2022-09-12T01:22:13.863Z,21.4
2022-09-12T01:23:18.948Z,21.4
2022-09-12T01:24:25.069Z,21.4
2022-09-12T01:25:31.174Z,21.4
2022-09-12T01:26:37.322Z,21.4
2022-09-12T01:27:43.408Z,21.4
2022-09-12T01:28:49.512Z,21.4
2022-09-12T01:29:55.635Z,21.4
2022-09-12T01:31:01.760Z,21.4
2022-09-12T01:32:07.852Z,21.4
2022-09-12T01:33:13.986Z,21.4
2022-09-12T01:34:20.085Z,21.4
2022-09-12T01:35:26.193Z,21.4
2022-09-12T01:36:32.313Z,21.4
2022-09-12T01:37:37.440Z,21.4
2022-09-12T01:38:43.552Z,21.4
2022-09-12T01:39:49.668Z,21.4
2022-09-12T01:40:55.815Z,21.4
2022-09-12T01:42:01.893Z,21.4
2022-09-12T01:43:08.012Z,21.4
2022-09-12T01:44:14.125Z,21.4
2022-09-12T01:45:20.283Z,21.4
2022-09-12T01:46:26.358Z,21.4
2022-09-12T01:47:32.463Z,21.4
2022-09-12T01:48:38.575Z,21.4
2022-09-12T01:49:44.705Z,21.4
2022-09-12T01:50:50.801Z,21.4
2022-09-12T01:53:02.054Z,21.4
2022-09-12T01:54:08.168Z,21.4
2022-09-12T01:55:14.279Z,21.4
2022-09-12T01:56:20.400Z,21.4
2022-09-12T01:57:26.514Z,21.4
2022-09-12T01:58:32.614Z,21.4
2022-09-12T01:59:38.730Z,21.4
2022-09-12T02:00:44.855Z,21.4
2022-09-12T02:01:50.960Z,21.4
2022-09-12T02:02:57.093Z,21.4
2022-09-12T02:04:03.191Z,21.4
2022-09-12T02:05:09.312Z,21.4
2022-09-12T02:06:14.423Z,21.4
2022-09-12T02:07:20.542Z,21.4
2022-09-12T02:08:26.684Z,21.4
2022-09-12T02:09:32.773Z,21.4
2022-09-12T02:10:38.922Z,21.4
2022-09-12T02:11:45.004Z,21.4
2022-09-12T02:12:51.189Z,21.4
2022-09-12T02:13:57.241Z,21.4
2022-09-12T02:15:03.346Z,21.4
2022-09-12T02:16:09.445Z,21.4
2022-09-12T02:17:15.604Z,21.4
2022-09-12T02:18:21.678Z,21.4
2022-09-12T02:19:27.791Z,21.4
2022-09-12T02:20:32.921Z,21.4
2022-09-12T02:21:39.033Z,21.4
2022-09-12T02:22:45.147Z,21.4
2022-09-12T02:23:51.262Z,21.4
2022-09-12T02:24:57.370Z,21.4
2022-09-12T02:26:03.494Z,21.4
2022-09-12T02:27:09.617Z,21.4
2022-09-12T02:28:15.726Z,21.4
2022-09-12T02:29:21.875Z,21.4
2022-09-12T02:30:27.939Z,21.4
2022-09-12T02:31:34.058Z,21.4
2022-09-12T02:32:40.170Z,21.4
2022-09-12T02:33:46.296Z,21.4
2022-09-12T02:34:51.418Z,21.4
2022-09-12T02:35:57.525Z,21.4
2022-09-12T02:37:03.645Z,21.4
2022-09-12T02:38:09.751Z,21.4
2022-09-12T02:39:15.872Z,21.4
2022-09-12T02:40:21.974Z,21.4
2022-09-12T02:41:28.155Z,21.4
2022-09-12T02:42:34.209Z,21.4
2022-09-12T02:43:40.350Z,21.4
2022-09-12T02:44:46.435Z,21.4
2022-09-12T02:45:52.548Z,21.4
2022-09-12T02:46:58.665Z,21.4
2022-09-12T02:48:04.779Z,21.4
2022-09-12T02:49:09.914Z,21.4
2022-09-12T02:50:16.017Z,21.4
2022-09-12T02:51:22.139Z,21.4
2022-09-12T02:52:28.240Z,21.4
2022-09-12T02:53:34.360Z,21.4
2022-09-12T02:54:40.474Z,21.4
2022-09-12T02:55:46.582Z,21.4
2022-09-12T02:56:52.706Z,21.4
2022-09-12T02:57:58.824Z,21.4
2022-09-12T02:59:04.930Z,21.4
2022-09-12T03:00:11.047Z,21.4
2022-09-12T03:01:17.166Z,21.4
2022-09-12T03:02:23.270Z,21.4
2022-09-12T03:03:28.399Z,21.4
2022-09-12T03:04:34.522Z,21.4
2022-09-12T03:05:40.624Z,21.4
2022-09-12T03:06:46.741Z,21.4
2022-09-12T03:07:52.857Z,21.4
2022-09-12T03:08:58.968Z,21.4
2022-09-12T03:10:05.083Z,21.4
2022-09-12T03:11:11.197Z,21.4
2022-09-12T03:12:17.327Z,21.4
2022-09-12T03:13:23.421Z,21.4
2022-09-12T03:14:29.543Z,21.4
2022-09-12T03:15:35.682Z,21.4
2022-09-12T03:16:41.761Z,21.4
2022-09-12T03:17:46.890Z,21.4
2022-09-12T03:18:53.008Z,21.4
2022-09-12T03:19:59.118Z,21.4
2022-09-12T03:21:05.231Z,21.4
2022-09-12T03:22:11.349Z,21.4
2022-09-12T03:23:17.483Z,21.4
2022-09-12T03:24:23.568Z,21.4
2022-09-12T03:25:29.683Z,21.4
2022-09-12T03:26:35.810Z,21.4
2022-09-12T03:27:41.920Z,21.4
2022-09-12T03:28:48.022Z,21.4
2022-09-12T03:29:54.145Z,21.4
2022-09-12T03:31:00.267Z,21.4
2022-09-12T03:33:11.489Z,21.4
2022-09-12T03:34:17.614Z,21.4
2022-09-12T03:35:23.726Z,21.4
2022-09-12T03:36:29.836Z,21.4
2022-09-12T03:37:35.966Z,21.4
2022-09-12T03:38:42.100Z,21.4
2022-09-12T03:39:48.189Z,21.4
2022-09-12T03:40:54.302Z,21.4
2022-09-12T03:42:00.411Z,21.4
2022-09-12T03:43:06.565Z,21.4
2022-09-12T03:44:12.733Z,21.4
2022-09-12T03:45:18.754Z,21.4
2022-09-12T03:46:23.876Z,21.3
2022-09-12T03:47:29.995Z,21.4
2022-09-12T03:48:36.105Z,21.4
2022-09-12T03:49:42.228Z,21.4
2022-09-12T03:50:48.335Z,21.4
2022-09-12T03:51:54.452Z,21.4
2022-09-12T03:53:00.566Z,21.4
2022-09-12T03:54:06.677Z,21.4
2022-09-12T03:55:12.792Z,21.4
2022-09-12T03:56:18.909Z,21.4
2022-09-12T03:57:25.019Z,21.4
2022-09-12T03:58:31.195Z,21.3
2022-09-12T03:59:37.242Z,21.3
2022-09-12T04:00:42.371Z,21.3
2022-09-12T04:01:48.587Z,21.3
2022-09-12T04:02:54.607Z,21.3
2022-09-12T04:04:00.720Z,21.3
2022-09-12T04:05:06.826Z,21.4
2022-09-12T04:06:12.954Z,21.3
2022-09-12T04:07:19.061Z,21.3
2022-09-12T04:08:25.171Z,21.3
2022-09-12T04:09:31.286Z,21.3
2022-09-12T04:10:37.392Z,21.3
2022-09-12T04:11:43.501Z,21.3
2022-09-12T04:12:49.623Z,21.4
2022-09-12T04:13:55.772Z,21.3
2022-09-12T04:15:00.867Z,21.3
2022-09-12T04:16:06.995Z,21.3
2022-09-12T04:17:13.093Z,21.3
2022-09-12T04:18:19.234Z,21.3
2022-09-12T04:19:25.323Z,21.3
2022-09-12T04:20:31.458Z,21.3
2022-09-12T04:21:37.558Z,21.3
2022-09-12T04:22:43.673Z,21.3
2022-09-12T04:23:49.794Z,21.3
2022-09-12T04:24:55.892Z,21.3
2022-09-12T04:26:02.002Z,21.3
2022-09-12T04:27:08.191Z,21.3
2022-09-12T04:28:14.275Z,21.3
2022-09-12T04:29:19.355Z,21.3
2022-09-12T04:30:25.474Z,21.3
2022-09-12T04:31:31.586Z,21.3
2022-09-12T04:32:37.736Z,21.3
2022-09-12T04:33:43.821Z,21.3
2022-09-12T04:34:49.922Z,21.3
2022-09-12T04:35:55.061Z,21.3
2022-09-12T04:37:01.233Z,21.3
2022-09-12T04:38:07.288Z,21.3
2022-09-12T04:39:13.402Z,21.3
2022-09-12T04:40:19.522Z,21.3
2022-09-12T04:41:25.630Z,21.3
2022-09-12T04:42:31.747Z,21.3
2022-09-12T04:43:37.889Z,21.3
2022-09-12T04:44:43.971Z,21.3
2022-09-12T04:45:50.083Z,21.3
2022-09-12T04:46:56.211Z,21.3
2022-09-12T04:48:02.345Z,21.3
2022-09-12T04:49:08.429Z,21.3
2022-09-12T04:50:13.553Z,21.3
2022-09-12T04:51:19.678Z,21.3
2022-09-12T04:52:25.811Z,21.3
2022-09-12T04:53:31.903Z,21.3
2022-09-12T04:54:38.026Z,21.3
2022-09-12T04:55:44.122Z,21.3
2022-09-12T04:56:50.258Z,21.3
2022-09-12T04:57:56.349Z,21.3
2022-09-12T04:59:02.466Z,21.3
2022-09-12T05:00:08.620Z,21.3
2022-09-12T05:01:14.690Z,21.3
2022-09-12T05:02:20.816Z,21.3
2022-09-12T05:03:26.939Z,21.3
2022-09-12T05:04:32.055Z,21.3
2022-09-12T05:05:38.170Z,21.3
2022-09-12T05:06:44.276Z,21.3
2022-09-12T05:07:50.396Z,21.3
2022-09-12T05:08:56.509Z,21.3
2022-09-12T05:10:02.626Z,21.3
2022-09-12T05:11:08.742Z,21.3
2022-09-12T05:12:14.852Z,21.3
2022-09-12T05:13:21.017Z,21.3
2022-09-12T05:14:27.078Z,21.3
2022-09-12T05:15:33.193Z,21.3
2022-09-12T05:16:39.300Z,21.3
2022-09-12T05:17:45.411Z,21.3
2022-09-12T05:18:50.541Z,21.3
2022-09-12T05:19:56.661Z,21.3
2022-09-12T05:21:02.774Z,21.3
2022-09-12T05:22:08.884Z,21.3
2022-09-12T05:23:14.996Z,21.3
2022-09-12T05:24:21.118Z,21.3
2022-09-12T05:25:27.237Z,21.3
2022-09-12T05:26:33.345Z,21.3
2022-09-12T05:27:39.475Z,21.3
2022-09-12T05:28:45.572Z,21.3
2022-09-12T05:29:51.680Z,21.3
2022-09-12T05:30:57.871Z,21.3
2022-09-12T05:32:03.914Z,21.3
2022-09-12T05:33:09.042Z,21.3
2022-09-12T05:34:15.156Z,21.3
2022-09-12T05:35:21.266Z,21.3
2022-09-12T05:36:27.378Z,21.3
2022-09-12T05:37:33.494Z,21.3
2022-09-12T05:38:39.630Z,21.3
2022-09-12T05:39:45.717Z,21.2
2022-09-12T05:40:51.833Z,21.3
2022-09-12T05:41:57.949Z,21.3
2022-09-12T05:43:04.060Z,21.3
2022-09-12T05:44:10.171Z,21.3
2022-09-12T05:45:16.301Z,21.3
2022-09-12T05:46:22.423Z,21.3
2022-09-12T05:47:27.536Z,21.2
2022-09-12T05:48:33.684Z,21.2
2022-09-12T05:49:39.754Z,21.3
2022-09-12T05:50:45.871Z,21.2
2022-09-12T05:51:51.985Z,21.3
2022-09-12T05:52:58.099Z,21.3
2022-09-12T05:54:04.212Z,21.2
2022-09-12T05:55:10.331Z,21.2
2022-09-12T05:56:16.436Z,21.3
2022-09-12T05:57:22.555Z,21.2
2022-09-12T05:58:28.686Z,21.2
2022-09-12T05:59:34.778Z,21.2
2022-09-12T06:00:40.926Z,21.2
2022-09-12T06:01:46.053Z,21.2
2022-09-12T06:02:52.146Z,21.2
2022-09-12T06:03:58.249Z,21.2
2022-09-12T06:05:04.364Z,21.2
2022-09-12T06:06:10.481Z,21.2
2022-09-12T06:07:16.589Z,21.2
2022-09-12T06:08:22.704Z,21.2
2022-09-12T06:09:28.820Z,21.2
2022-09-12T06:10:34.938Z,21.2
2022-09-12T06:11:41.056Z,21.2
2022-09-12T06:12:47.158Z,21.2
2022-09-12T06:13:53.275Z,21.2
2022-09-12T06:14:59.382Z,21.2
2022-09-12T06:16:04.518Z,21.2
2022-09-12T06:17:10.631Z,21.2
2022-09-12T06:18:16.751Z,21.2
2022-09-12T06:19:22.913Z,21.2
2022-09-12T06:20:28.972Z,21.2
2022-09-12T06:21:35.086Z,21.2
2022-09-12T06:22:41.194Z,21.2
2022-09-12T06:23:47.309Z,21.2
2022-09-12T06:24:53.434Z,21.2
2022-09-12T06:25:59.541Z,21.2
2022-09-12T06:27:05.678Z,21.2
2022-09-12T06:28:11.764Z,21.2
2022-09-12T06:29:17.879Z,21.2
2022-09-12T06:30:23.001Z,21.2
2022-09-12T06:31:29.125Z,21.2
2022-09-12T06:32:35.235Z,21.2
2022-09-12T06:33:41.356Z,21.2
2022-09-12T06:34:47.459Z,21.2
2022-09-12T06:35:53.583Z,21.2
2022-09-12T06:36:59.719Z,21.2
2022-09-12T06:38:05.814Z,21.2
2022-09-12T06:39:11.916Z,21.2
2022-09-12T06:40:18.025Z,21.2
2022-09-12T06:41:24.145Z,21.2
2022-09-12T06:42:30.256Z,21.2
2022-09-12T06:43:36.377Z,21.2
2022-09-12T06:44:41.502Z,21.2
2022-09-12T06:45:47.611Z,21.2
2022-09-12T06:46:53.723Z,21.2
2022-09-12T06:47:59.863Z,21.2
2022-09-12T06:49:05.995Z,21.2
2022-09-12T06:50:12.072Z,21.2
2022-09-12T06:51:18.186Z,21.2
2022-09-12T06:52:24.292Z,21.2
2022-09-12T06:53:30.404Z,21.2
2022-09-12T06:54:36.550Z,21.2
2022-09-12T06:55:42.641Z,21.2
2022-09-12T06:56:48.795Z,21.2
2022-09-12T06:57:54.860Z,21.2
2022-09-12T06:58:59.995Z,21.2
2022-09-12T07:00:06.115Z,21.2
2022-09-12T07:01:12.221Z,21.2
2022-09-12T07:02:18.331Z,21.2
2022-09-12T07:03:24.443Z,21.2
2022-09-12T07:04:30.563Z,21.2
2022-09-12T07:05:36.679Z,21.2
2022-09-12T07:06:42.792Z,21.2
2022-09-12T07:07:48.903Z,21.2
2022-09-12T07:08:55.014Z,21.2
2022-09-12T07:10:01.147Z,21.2
2022-09-12T07:11:07.247Z,21.2
2022-09-12T07:12:13.358Z,21.2
2022-09-12T07:13:18.495Z,21.2
2022-09-12T07:14:24.607Z,21.2
2022-09-12T07:15:30.712Z,21.2
2022-09-12T07:16:36.835Z,21.2
2022-09-12T07:17:42.947Z,21.2
2022-09-12T07:18:49.058Z,21.2
2022-09-12T07:19:55.183Z,21.1
2022-09-12T07:21:01.282Z,21.1
2022-09-12T07:22:07.407Z,21.2
2022-09-12T07:23:13.543Z,21.1
2022-09-12T07:24:19.674Z,21.1
2022-09-12T07:25:25.740Z,21.1
2022-09-12T07:26:31.861Z,21.1
2022-09-12T07:27:36.970Z,21.1
2022-09-12T07:28:43.121Z,21.1
2022-09-12T07:29:49.207Z,21.1
2022-09-12T07:30:55.313Z,21.1
2022-09-12T07:32:01.435Z,21.1
2022-09-12T07:33:07.541Z,21.1
2022-09-12T07:34:13.653Z,21.1
2022-09-12T07:35:19.773Z,21.1
2022-09-12T07:36:25.883Z,21.1
2022-09-12T07:37:32.002Z,21.1
2022-09-12T07:38:38.119Z,21.1
2022-09-12T07:39:44.222Z,21.1
2022-09-12T07:40:50.348Z,21.1
2022-09-12T07:41:55.467Z,21.1
2022-09-12T07:43:01.577Z,21.1
2022-09-12T07:44:07.698Z,21.1
2022-09-12T07:45:13.833Z,21.1
2022-09-12T07:46:19.970Z,21.1
2022-09-12T07:47:26.038Z,21.1
2022-09-12T07:48:32.156Z,21.1
2022-09-12T07:49:38.264Z,21.1
2022-09-12T07:50:44.393Z,21.1
2022-09-12T07:51:50.485Z,21.1
2022-09-12T07:52:56.605Z,21.1
2022-09-12T07:54:02.715Z,21.1
2022-09-12T07:55:08.827Z,21.1
2022-09-12T07:56:13.960Z,21.1
2022-09-12T07:57:20.118Z,21.1
2022-09-12T07:58:26.186Z,21.1
2022-09-12T07:59:32.303Z,21.1
2022-09-12T08:00:38.406Z,21.1
2022-09-12T08:01:44.542Z,21.1
2022-09-12T08:02:50.653Z,21.1
2022-09-12T08:03:56.794Z,21.1
2022-09-12T08:05:02.874Z,21.1
2022-09-12T08:06:08.984Z,21.1
2022-09-12T08:07:15.109Z,21.1
2022-09-12T08:08:21.209Z,21.1
2022-09-12T08:09:27.342Z,21.1
2022-09-12T08:10:32.450Z,21.1
2022-09-12T08:11:38.570Z,21.1
2022-09-12T08:12:44.683Z,21.1
2022-09-12T08:13:50.801Z,21.1
2022-09-12T08:14:56.945Z,21.1
2022-09-12T08:16:03.027Z,21.1
2022-09-12T08:17:08.159Z,21.1
2022-09-12T08:18:14.269Z,21.1
2022-09-12T08:19:20.383Z,21.1
2022-09-12T08:20:26.497Z,21.1
2022-09-12T08:21:32.622Z,21.1
2022-09-12T08:22:38.730Z,21.1
2022-09-12T08:23:44.841Z,21.1
2022-09-12T08:24:50.986Z,21.1
2022-09-12T08:25:57.064Z,21.1
2022-09-12T08:27:03.182Z,21.1
2022-09-12T08:28:09.302Z,21.1
2022-09-12T08:29:15.404Z,21.1
2022-09-12T08:30:21.516Z,21
2022-09-12T08:31:26.649Z,21
2022-09-12T08:32:32.762Z,21.1
2022-09-12T08:33:38.884Z,21.1
2022-09-12T08:34:44.991Z,21.1
2022-09-12T08:35:51.098Z,21
2022-09-12T08:36:57.221Z,21
2022-09-12T08:38:03.335Z,21
2022-09-12T08:39:09.468Z,21
2022-09-12T08:40:15.557Z,21
2022-09-12T08:41:21.702Z,21.1
2022-09-12T08:42:27.795Z,21
2022-09-12T08:43:33.918Z,21
2022-09-12T08:44:40.024Z,21
2022-09-12T08:45:45.198Z,21
2022-09-12T08:46:51.274Z,21
2022-09-12T08:47:57.449Z,21
2022-09-12T08:49:03.531Z,21
2022-09-12T08:50:09.597Z,21
2022-09-12T08:51:15.798Z,21
2022-09-12T08:52:21.817Z,21
2022-09-12T08:53:27.941Z,21
2022-09-12T08:54:34.056Z,21
2022-09-12T08:55:40.225Z,21
2022-09-12T08:56:46.274Z,21
2022-09-12T08:57:52.395Z,21
2022-09-12T08:58:58.596Z,21
2022-09-12T09:00:03.715Z,21
2022-09-12T09:01:09.745Z,21
2022-09-12T09:02:15.864Z,21
2022-09-12T09:03:21.978Z,21
2022-09-12T09:04:28.096Z,21
2022-09-12T09:05:34.204Z,21
2022-09-12T09:06:40.327Z,21
2022-09-12T09:07:46.472Z,21
2022-09-12T09:08:52.550Z,21
2022-09-12T09:09:58.665Z,21
2022-09-12T09:11:04.809Z,21
2022-09-12T09:12:10.911Z,21
2022-09-12T09:13:17.022Z,21
2022-09-12T09:14:22.149Z,21
2022-09-12T09:15:28.286Z,21
2022-09-12T09:16:34.355Z,21
2022-09-12T09:17:40.512Z,21
2022-09-12T09:18:46.583Z,21
2022-09-12T09:19:52.700Z,21
2022-09-12T09:20:58.856Z,21
2022-09-12T09:22:04.926Z,21
2022-09-12T09:23:11.129Z,21
2022-09-12T09:24:17.167Z,21
2022-09-12T09:25:23.289Z,21
2022-09-12T09:26:29.434Z,21
2022-09-12T09:27:35.505Z,21
2022-09-12T09:28:40.630Z,21
2022-09-12T09:29:46.744Z,21
2022-09-12T09:30:52.855Z,21
2022-09-12T09:31:58.971Z,21
2022-09-12T09:33:05.080Z,21
2022-09-12T09:34:11.199Z,21
2022-09-12T09:35:17.312Z,21
2022-09-12T09:36:23.405Z,21
2022-09-12T09:37:29.530Z,21
2022-09-12T09:38:35.695Z,21
2022-09-12T09:39:41.853Z,21
2022-09-12T09:40:47.865Z,21
2022-09-12T09:41:53.984Z,21
2022-09-12T09:42:59.116Z,21
2022-09-12T09:44:05.322Z,21
2022-09-12T09:45:11.387Z,21
2022-09-12T09:46:17.554Z,21
2022-09-12T09:47:23.601Z,21
2022-09-12T09:48:29.729Z,21
2022-09-12T09:49:35.805Z,21
2022-09-12T09:50:41.917Z,21
2022-09-12T09:51:48.023Z,21
2022-09-12T09:52:54.131Z,21
2022-09-12T09:54:00.253Z,21
2022-09-12T09:55:06.403Z,21
2022-09-12T09:56:12.552Z,21
2022-09-12T09:57:17.600Z,21
2022-09-12T09:58:23.715Z,21
2022-09-12T09:59:29.835Z,21
2022-09-12T10:00:35.954Z,21
2022-09-12T10:01:42.096Z,21
2022-09-12T10:02:48.170Z,21
2022-09-12T10:03:54.310Z,21
2022-09-12T10:05:00.531Z,21
2022-09-12T10:06:06.517Z,20.9
2022-09-12T10:07:12.730Z,20.9
2022-09-12T10:08:18.772Z,21
2022-09-12T10:09:24.864Z,20.9
2022-09-12T10:10:30.971Z,21
2022-09-12T10:11:36.098Z,20.9
2022-09-12T10:12:42.205Z,20.9
2022-09-12T10:13:48.330Z,20.9
2022-09-12T10:14:54.429Z,20.9
2022-09-12T10:16:00.555Z,20.9
2022-09-12T10:17:06.674Z,20.9
2022-09-12T10:18:12.773Z,20.9
2022-09-12T10:19:18.931Z,20.9
2022-09-12T10:20:25.006Z,20.9
2022-09-12T10:21:31.132Z,20.9
2022-09-12T10:22:37.297Z,20.9
2022-09-12T10:23:43.472Z,20.9
2022-09-12T10:24:49.463Z,20.9
2022-09-12T10:25:54.598Z,20.9
2022-09-12T10:27:00.700Z,20.9
2022-09-12T10:28:06.818Z,20.9
2022-09-12T10:29:12.934Z,20.9
2022-09-12T10:30:19.044Z,20.9
2022-09-12T10:31:25.158Z,20.9
2022-09-12T10:32:31.384Z,20.9
2022-09-12T10:33:37.468Z,20.9
2022-09-12T10:34:43.502Z,20.9
2022-09-12T10:35:49.607Z,20.9
2022-09-12T10:36:55.725Z,20.9
2022-09-12T10:38:01.844Z,20.9
2022-09-12T10:39:07.949Z,20.9
2022-09-12T10:40:13.086Z,20.9
2022-09-12T10:41:19.198Z,20.9
2022-09-12T10:42:25.313Z,20.9
2022-09-12T10:43:31.423Z,20.9
2022-09-12T10:44:37.538Z,20.9
2022-09-12T10:45:43.664Z,20.9
2022-09-12T10:46:49.763Z,20.9
2022-09-12T10:47:55.880Z,20.9
2022-09-12T10:49:01.991Z,20.9
2022-09-12T10:50:08.103Z,20.9
2022-09-12T10:51:14.226Z,20.9
2022-09-12T10:52:20.341Z,20.9
2022-09-12T10:53:26.501Z,20.9
2022-09-12T10:54:31.568Z,20.9
2022-09-12T10:55:37.712Z,20.9
2022-09-12T10:56:43.797Z,20.9
2022-09-12T10:57:49.934Z,20.9
2022-09-12T10:58:56.034Z,20.9
2022-09-12T11:00:02.233Z,20.9
2022-09-12T11:01:08.261Z,20.9
2022-09-12T11:02:14.387Z,20.9
2022-09-12T11:03:20.494Z,20.9
2022-09-12T11:04:26.601Z,20.9
2022-09-12T11:05:32.764Z,20.9
2022-09-12T11:06:38.851Z,20.9
2022-09-12T11:07:44.951Z,20.9
2022-09-12T11:08:50.077Z,20.9
2022-09-12T11:09:56.181Z,20.8
2022-09-12T11:11:02.306Z,20.9
2022-09-12T11:12:08.432Z,20.9
2022-09-12T11:13:14.688Z,20.9
2022-09-12T11:14:20.777Z,20.9
2022-09-12T11:15:26.747Z,20.8
2022-09-12T11:16:32.869Z,20.9
2022-09-12T11:17:38.976Z,20.8
2022-09-12T11:18:45.087Z,20.9
2022-09-12T11:19:51.205Z,20.8
2022-09-12T11:20:57.339Z,20.8
2022-09-12T11:22:03.460Z,20.9
2022-09-12T11:23:08.558Z,20.8
2022-09-12T11:24:14.664Z,20.8
2022-09-12T11:25:20.815Z,20.8
2022-09-12T11:26:26.904Z,20.9
2022-09-12T11:27:33.093Z,20.8
2022-09-12T11:28:39.212Z,20.9
2022-09-12T11:29:45.242Z,20.8
2022-09-12T11:30:51.351Z,20.8
2022-09-12T11:31:57.487Z,20.8
2022-09-12T11:33:03.708Z,20.8
2022-09-12T11:34:09.801Z,20.8
2022-09-12T11:35:15.885Z,20.8
2022-09-12T11:36:21.925Z,20.8
2022-09-12T11:37:27.052Z,20.8
2022-09-12T11:38:33.160Z,20.8
2022-09-12T11:39:39.284Z,20.8
2022-09-12T11:40:45.391Z,20.8
2022-09-12T11:41:51.502Z,20.8
2022-09-12T11:42:57.619Z,20.8
2022-09-12T11:44:03.735Z,20.8
2022-09-12T11:45:09.847Z,20.8
2022-09-12T11:46:15.956Z,20.8
2022-09-12T11:47:22.072Z,20.8
2022-09-12T11:48:28.179Z,20.8
2022-09-12T11:49:34.304Z,20.8
2022-09-12T11:50:40.412Z,20.8
2022-09-12T11:51:45.544Z,20.8
2022-09-12T11:52:51.658Z,20.8
2022-09-12T11:53:57.816Z,20.8
2022-09-12T11:55:03.883Z,20.8
2022-09-12T11:56:09.995Z,20.8
2022-09-12T11:57:16.117Z,20.8
2022-09-12T11:58:21.250Z,20.8
2022-09-12T11:59:27.364Z,20.8
2022-09-12T12:00:33.561Z,20.8
2022-09-12T12:01:39.600Z,20.8
2022-09-12T12:02:45.778Z,20.8
2022-09-12T12:03:51.825Z,20.8
2022-09-12T12:04:57.926Z,20.8
2022-09-12T12:06:04.041Z,20.8
2022-09-12T12:07:10.188Z,20.8
2022-09-12T12:08:16.274Z,20.8
2022-09-12T12:09:22.380Z,20.8
2022-09-12T12:10:28.490Z,20.8
2022-09-12T12:11:34.618Z,20.8
2022-09-12T12:12:39.744Z,20.8
2022-09-12T12:13:45.851Z,20.8
2022-09-12T12:14:51.963Z,20.8
2022-09-12T12:15:58.086Z,20.8
2022-09-12T12:17:04.195Z,20.8
2022-09-12T12:18:10.309Z,20.8
2022-09-12T12:19:16.418Z,20.8
2022-09-12T12:20:22.526Z,20.8
2022-09-12T12:21:28.649Z,20.8
2022-09-12T12:22:34.770Z,20.8
2022-09-12T12:23:40.877Z,20.8
2022-09-12T12:24:46.991Z,20.8
2022-09-12T12:25:53.107Z,20.8
2022-09-12T12:26:58.230Z,20.8
2022-09-12T12:28:04.350Z,20.8
2022-09-12T12:29:10.479Z,20.8
2022-09-12T12:30:16.574Z,20.8
2022-09-12T12:31:22.685Z,20.8
2022-09-12T12:32:28.798Z,20.8
2022-09-12T12:33:34.912Z,20.8
2022-09-12T12:34:41.062Z,20.8
2022-09-12T12:35:47.140Z,20.8
2022-09-12T12:36:53.248Z,20.8
2022-09-12T12:37:59.374Z,20.8
2022-09-12T12:39:05.480Z,20.8
2022-09-12T12:40:11.591Z,20.8
2022-09-12T12:41:16.730Z,20.8
2022-09-12T12:42:22.839Z,20.8
2022-09-12T12:43:28.958Z,20.8
2022-09-12T12:44:35.069Z,20.8
2022-09-12T12:45:41.182Z,20.8
2022-09-12T12:46:47.304Z,20.8
2022-09-12T12:47:53.417Z,20.8
2022-09-12T12:48:59.524Z,20.8
2022-09-12T12:50:05.642Z,20.8
2022-09-12T12:51:11.743Z,20.8
2022-09-12T12:52:17.856Z,20.8
2022-09-12T12:53:23.978Z,20.8
2022-09-12T12:54:30.091Z,20.8
2022-09-12T12:55:35.238Z,20.8
2022-09-12T12:56:41.331Z,20.8
2022-09-12T12:57:47.441Z,20.8
2022-09-12T12:58:53.558Z,20.8
2022-09-12T12:59:59.675Z,20.8
2022-09-12T13:01:05.785Z,20.8
2022-09-12T13:02:11.911Z,20.8
2022-09-12T13:03:18.025Z,20.8
2022-09-12T13:04:24.125Z,20.8
2022-09-12T13:05:30.249Z,20.8
2022-09-12T13:06:36.360Z,20.8
2022-09-12T13:07:42.476Z,20.8
2022-09-12T13:08:48.590Z,20.8
2022-09-12T13:09:53.723Z,20.8
2022-09-12T13:10:59.829Z,20.8
2022-09-12T13:12:05.950Z,20.8
2022-09-12T13:13:12.075Z,20.8
2022-09-12T13:14:18.217Z,20.8
2022-09-12T13:15:24.278Z,20.8
2022-09-12T13:16:30.397Z,20.8
2022-09-12T13:17:36.501Z,20.8
2022-09-12T13:18:42.624Z,20.8
2022-09-12T13:19:48.749Z,20.8
2022-09-12T13:20:54.848Z,20.8
2022-09-12T13:22:01.012Z,20.8
2022-09-12T13:23:07.076Z,20.8
2022-09-12T13:24:12.215Z,20.8
2022-09-12T13:25:18.325Z,20.8
2022-09-12T13:26:24.429Z,20.8
2022-09-12T13:28:36.667Z,20.8
2022-09-12T13:29:42.792Z,20.8
2022-09-12T13:30:48.885Z,20.8
2022-09-12T13:31:54.999Z,20.8
2022-09-12T13:33:01.165Z,20.8
2022-09-12T13:34:07.253Z,20.8
2022-09-12T13:35:13.333Z,20.8
2022-09-12T13:36:19.447Z,20.7
2022-09-12T13:37:25.565Z,20.7
2022-09-12T13:38:30.696Z,20.8
2022-09-12T13:39:36.809Z,20.7
2022-09-12T13:40:42.917Z,20.8
2022-09-12T13:41:49.036Z,20.8
2022-09-12T13:42:55.189Z,20.8
2022-09-12T13:44:01.268Z,20.7
2022-09-12T13:45:07.373Z,20.7
2022-09-12T13:46:13.485Z,20.8
2022-09-12T13:47:19.605Z,20.7
2022-09-12T13:48:25.714Z,20.8
2022-09-12T13:49:31.828Z,20.8
2022-09-12T13:50:37.942Z,20.8
2022-09-12T13:51:44.057Z,20.8
2022-09-12T13:52:49.186Z,20.8
2022-09-12T13:53:55.305Z,20.8
2022-09-12T13:55:01.416Z,20.7
2022-09-12T13:56:07.543Z,20.8
2022-09-12T13:57:13.644Z,20.8
2022-09-12T13:58:19.755Z,20.8
2022-09-12T13:59:25.870Z,20.7
2022-09-12T14:00:31.985Z,20.8
2022-09-12T14:01:38.098Z,20.8
2022-09-12T14:02:44.205Z,20.8
2022-09-12T14:03:50.331Z,20.8
2022-09-12T14:04:56.431Z,20.7
2022-09-12T14:06:02.551Z,20.8
2022-09-12T14:07:07.686Z,20.7
2022-09-12T14:08:13.790Z,20.7
2022-09-12T14:09:19.903Z,20.7
2022-09-12T14:10:26.022Z,20.7
2022-09-12T14:11:32.142Z,20.8
2022-09-12T14:12:38.291Z,20.8
2022-09-12T14:13:44.357Z,20.7
2022-09-12T14:14:50.476Z,20.7
2022-09-12T14:15:56.593Z,20.7
2022-09-12T14:17:02.697Z,20.7
2022-09-12T14:18:08.884Z,20.7
2022-09-12T14:19:14.941Z,20.7
2022-09-12T14:20:21.044Z,20.7
2022-09-12T14:21:26.230Z,20.8
2022-09-12T14:22:32.381Z,20.7
2022-09-12T14:23:38.403Z,20.7
2022-09-12T14:24:44.525Z,20.7
2022-09-12T14:25:50.628Z,20.7
2022-09-12T14:26:56.763Z,20.7
2022-09-12T14:29:08.976Z,20.7
2022-09-12T14:30:15.076Z,20.7
2022-09-12T14:31:21.204Z,20.7
2022-09-12T14:32:27.310Z,20.8
2022-09-12T14:33:33.424Z,20.7
2022-09-12T14:34:39.534Z,20.7
2022-09-12T14:35:44.667Z,20.7
2022-09-12T14:36:50.816Z,20.7
2022-09-12T14:37:56.902Z,20.8
2022-09-12T14:39:03.037Z,20.7
2022-09-12T14:40:09.120Z,20.7
2022-09-12T14:41:15.230Z,20.7
2022-09-12T14:42:21.374Z,20.7
2022-09-12T14:43:27.457Z,20.7
2022-09-12T14:44:33.576Z,20.7
2022-09-12T14:45:39.716Z,20.7
2022-09-12T14:46:45.876Z,20.7
2022-09-12T14:47:51.938Z,20.7
2022-09-12T14:48:58.024Z,20.7
2022-09-12T14:50:04.169Z,20.7
2022-09-12T14:51:09.274Z,20.7